createdAt,value
2023-01-11T00:00:56.838Z,3.39
2023-01-11T00:03:24.277Z,3.52
2023-01-11T00:05:51.755Z,3.33
2023-01-11T00:08:19.275Z,3.14
2023-01-11T00:10:46.715Z,3.36
2023-01-11T00:13:14.784Z,3.53
2023-01-11T00:15:43.713Z,3.71
2023-01-11T00:18:12.078Z,3.68
2023-01-11T00:20:39.861Z,3.66
2023-01-11T00:23:07.375Z,3.68
2023-01-11T00:25:34.882Z,3.83
2023-01-11T00:28:02.262Z,3.80
2023-01-11T00:30:29.721Z,3.84
2023-01-11T00:32:59.407Z,3.80
2023-01-11T00:35:28.978Z,3.87
2023-01-11T00:37:56.379Z,3.95
2023-01-11T00:40:24.415Z,4.00
2023-01-11T00:43:09.113Z,3.97
2023-01-11T00:45:54.270Z,3.99
2023-01-11T00:48:22.996Z,3.78
2023-01-11T00:50:54.381Z,3.98
2023-01-11T00:53:22.455Z,4.07
2023-01-11T00:55:49.755Z,4.08
2023-01-11T00:58:17.102Z,4.08
2023-01-11T01:00:44.520Z,4.18
2023-01-11T01:03:11.913Z,4.21
2023-01-11T01:05:41.757Z,4.24
2023-01-11T01:08:09.213Z,4.33
2023-01-11T01:10:36.629Z,4.27
2023-01-11T01:13:21.554Z,4.36
2023-01-11T01:15:49.076Z,4.39
2023-01-11T01:18:16.491Z,4.42
2023-01-11T01:20:45.157Z,4.45
2023-01-11T01:23:12.530Z,4.45
2023-01-11T01:25:39.921Z,4.50
2023-01-11T01:28:07.307Z,4.49
2023-01-11T01:30:34.681Z,4.52
2023-01-11T01:33:02.029Z,4.58
2023-01-11T01:35:29.403Z,4.58
2023-01-11T01:37:58.072Z,4.64
2023-01-11T01:40:25.456Z,4.65
2023-01-11T01:42:55.010Z,4.65
2023-01-11T01:45:24.698Z,4.61
2023-01-11T01:47:57.388Z,4.65
2023-01-11T01:50:28.888Z,4.66
2023-01-11T01:53:02.962Z,4.70
2023-01-11T01:55:34.545Z,4.64
2023-01-11T01:58:05.503Z,4.61
2023-01-11T02:00:33.170Z,4.56
2023-01-11T02:03:02.554Z,4.55
2023-01-11T02:05:30.101Z,4.57
2023-01-11T02:08:01.047Z,4.60
2023-01-11T02:10:29.052Z,4.58
2023-01-11T02:12:59.172Z,4.59
2023-01-11T02:15:27.361Z,4.54
2023-01-11T02:17:54.768Z,4.50
2023-01-11T02:20:33.629Z,4.57
2023-01-11T02:23:36.413Z,4.55
2023-01-11T02:26:31.835Z,4.59
2023-01-11T02:29:09.769Z,4.70
2023-01-11T02:31:42.205Z,4.69
2023-01-11T02:34:21.270Z,4.76
2023-01-11T02:37:03.653Z,4.78
2023-01-11T02:39:38.227Z,4.85
2023-01-11T02:42:30.234Z,4.89
2023-01-11T02:45:09.175Z,4.89
2023-01-11T02:47:47.329Z,4.94
2023-01-11T02:50:23.100Z,4.89
2023-01-11T02:52:58.639Z,4.99
2023-01-11T02:55:29.497Z,5.00
2023-01-11T02:58:01.525Z,5.03
2023-01-11T03:00:30.604Z,5.01
2023-01-11T03:03:14.439Z,4.97
2023-01-11T03:05:47.045Z,4.99
2023-01-11T03:08:31.247Z,4.95
2023-01-11T03:11:05.830Z,4.99
2023-01-11T03:13:47.556Z,5.01
2023-01-11T03:16:23.796Z,5.07
2023-01-11T03:18:55.363Z,5.00
2023-01-11T03:21:33.319Z,5.05
2023-01-11T03:24:06.053Z,5.03
2023-01-11T03:26:42.812Z,5.04
2023-01-11T03:29:20.324Z,5.13
2023-01-11T03:31:55.652Z,5.16
2023-01-11T03:34:31.767Z,5.08
2023-01-11T03:37:04.643Z,5.12
2023-01-11T03:39:38.760Z,5.18
2023-01-11T03:42:08.461Z,5.22
2023-01-11T03:44:43.405Z,5.20
2023-01-11T03:47:15.701Z,5.25
2023-01-11T03:49:48.497Z,5.19
2023-01-11T03:52:19.623Z,5.18
2023-01-11T03:54:48.133Z,5.18
2023-01-11T03:57:19.498Z,5.21
2023-01-11T03:59:47.398Z,5.31
2023-01-11T04:02:20.627Z,5.27
2023-01-11T04:04:48.357Z,5.29
2023-01-11T04:07:16.815Z,5.34
2023-01-11T04:09:44.169Z,5.30
2023-01-11T04:12:11.887Z,5.32
2023-01-11T04:14:39.474Z,5.33
2023-01-11T04:17:06.899Z,5.33
2023-01-11T04:19:35.583Z,5.25
2023-01-11T04:22:02.921Z,5.29
2023-01-11T04:24:30.276Z,5.30
2023-01-11T04:26:57.615Z,5.31
2023-01-11T04:29:24.997Z,5.31
2023-01-11T04:31:52.391Z,5.38
2023-01-11T04:34:19.807Z,5.40
2023-01-11T04:36:48.486Z,5.39
2023-01-11T04:39:15.908Z,5.44
2023-01-11T04:42:01.175Z,5.46
2023-01-11T04:44:28.570Z,5.58
2023-01-11T04:46:55.911Z,5.52
2023-01-11T04:49:23.277Z,5.52
2023-01-11T04:51:52.249Z,5.59
2023-01-11T04:54:19.781Z,5.61
2023-01-11T04:56:47.150Z,5.60
2023-01-11T04:59:14.873Z,5.60
2023-01-11T05:01:42.281Z,5.61
2023-01-11T05:04:11.395Z,5.71
2023-01-11T05:06:40.091Z,5.69
2023-01-11T05:09:14.113Z,5.67
2023-01-11T05:11:41.538Z,5.74
2023-01-11T05:14:09.230Z,5.76
2023-01-11T05:16:36.969Z,5.71
2023-01-11T05:19:06.174Z,5.77
2023-01-11T05:21:35.384Z,5.80
2023-01-11T05:24:05.217Z,5.81
2023-01-11T05:26:35.685Z,5.79
2023-01-11T05:29:05.033Z,5.85
2023-01-11T05:31:33.498Z,5.85
2023-01-11T05:34:01.223Z,5.82
2023-01-11T05:36:29.527Z,5.92
2023-01-11T05:38:57.732Z,5.92
2023-01-11T05:41:26.863Z,5.91
2023-01-11T05:44:13.805Z,5.89
2023-01-11T05:46:43.179Z,5.87
2023-01-11T05:49:12.029Z,5.89
2023-01-11T05:51:39.852Z,5.88
2023-01-11T05:54:10.185Z,5.89
2023-01-11T05:56:37.666Z,5.95
2023-01-11T05:59:07.064Z,5.87
2023-01-11T06:01:34.664Z,5.86
2023-01-11T06:04:02.077Z,5.84
2023-01-11T06:06:29.745Z,5.88
2023-01-11T06:08:57.204Z,5.77
2023-01-11T06:11:24.581Z,5.76
2023-01-11T06:13:52.007Z,5.88
2023-01-11T06:16:22.145Z,5.86
2023-01-11T06:18:51.551Z,5.85
2023-01-11T06:21:20.186Z,5.91
2023-01-11T06:23:51.256Z,5.89
2023-01-11T06:26:21.069Z,5.92
2023-01-11T06:28:48.853Z,6.00
2023-01-11T06:31:17.818Z,6.02
2023-01-11T06:33:47.424Z,5.92
2023-01-11T06:36:15.994Z,5.94
2023-01-11T06:38:44.220Z,5.88
2023-01-11T06:41:12.535Z,5.95
2023-01-11T06:43:41.803Z,5.96
2023-01-11T06:46:15.546Z,5.89
2023-01-11T06:48:43.351Z,5.97
2023-01-11T06:51:13.367Z,5.95
2023-01-11T06:53:42.053Z,6.02
2023-01-11T06:56:13.024Z,6.12
2023-01-11T06:58:40.446Z,6.08
2023-01-11T07:01:08.114Z,6.09
2023-01-11T07:03:35.706Z,6.13
2023-01-11T07:06:04.364Z,6.12
2023-01-11T07:08:33.120Z,6.15
2023-01-11T07:11:00.562Z,6.23
2023-01-11T07:13:27.990Z,6.26
2023-01-11T07:15:58.140Z,6.23
2023-01-11T07:18:25.623Z,6.31
2023-01-11T07:20:53.075Z,6.31
2023-01-11T07:23:20.462Z,6.33
2023-01-11T07:25:50.326Z,6.35
2023-01-11T07:28:17.778Z,6.28
2023-01-11T07:30:57.280Z,6.35
2023-01-11T07:33:25.486Z,6.39
2023-01-11T07:35:52.965Z,6.40
2023-01-11T07:38:20.413Z,6.33
2023-01-11T07:40:47.835Z,6.40
2023-01-11T07:43:15.715Z,6.37
2023-01-11T07:45:46.649Z,6.34
2023-01-11T07:48:14.899Z,6.39
2023-01-11T07:50:45.165Z,6.37
2023-01-11T07:53:13.288Z,6.34
2023-01-11T07:55:42.480Z,6.49
2023-01-11T07:58:12.236Z,6.54
2023-01-11T08:00:41.650Z,6.52
2023-01-11T08:03:09.323Z,6.60
2023-01-11T08:05:36.862Z,6.51
2023-01-11T08:08:04.351Z,6.64
2023-01-11T08:10:32.096Z,6.67
2023-01-11T08:13:28.965Z,6.80
2023-01-11T08:15:58.248Z,6.90
2023-01-11T08:18:25.770Z,6.86
2023-01-11T08:20:53.670Z,7.00
2023-01-11T08:23:21.074Z,7.01
2023-01-11T08:25:48.479Z,7.10
2023-01-11T08:28:15.894Z,7.20
2023-01-11T08:30:44.302Z,7.18
2023-01-11T08:33:13.033Z,7.20
2023-01-11T08:35:41.061Z,7.22
2023-01-11T08:38:08.700Z,7.15
2023-01-11T08:40:36.670Z,7.10
2023-01-11T08:43:03.984Z,7.16
2023-01-11T08:45:31.412Z,7.19
2023-01-11T08:48:00.397Z,7.16
2023-01-11T08:50:29.197Z,7.20
2023-01-11T08:52:56.580Z,7.18
2023-01-11T08:55:24.085Z,7.22
2023-01-11T08:57:51.471Z,7.26
2023-01-11T09:00:20.838Z,7.22
2023-01-11T09:02:48.244Z,7.26
2023-01-11T09:05:18.085Z,7.30
2023-01-11T09:07:47.337Z,7.41
2023-01-11T09:10:14.724Z,7.37
2023-01-11T09:12:42.164Z,7.32
2023-01-11T09:15:10.439Z,7.30
2023-01-11T09:17:37.819Z,7.39
2023-01-11T09:20:06.169Z,7.49
2023-01-11T09:22:33.783Z,7.45
2023-01-11T09:25:02.584Z,7.49
2023-01-11T09:27:29.988Z,7.49
2023-01-11T09:29:57.425Z,7.48
2023-01-11T09:32:24.797Z,7.62
2023-01-11T09:34:57.170Z,7.65
2023-01-11T09:37:24.659Z,7.61
2023-01-11T09:39:52.574Z,7.60
2023-01-11T09:42:32.226Z,7.70
2023-01-11T09:45:07.069Z,7.74
2023-01-11T09:47:40.797Z,7.65
2023-01-11T09:50:14.358Z,7.70
2023-01-11T09:52:46.241Z,7.71
2023-01-11T09:55:20.060Z,7.84
2023-01-11T09:57:59.136Z,7.73
2023-01-11T10:00:33.963Z,7.85
2023-01-11T10:03:24.119Z,7.83
2023-01-11T10:05:59.922Z,7.82
2023-01-11T10:18:31.447Z,7.84
2023-01-11T10:18:40.604Z,7.88
2023-01-11T10:20:34.929Z,7.85
2023-01-11T10:23:08.290Z,8.02
2023-01-11T10:25:44.104Z,8.04
2023-01-11T10:28:23.069Z,8.09
2023-01-11T10:31:08.082Z,8.11
2023-01-11T10:34:05.823Z,8.18
2023-01-11T10:36:51.659Z,8.18
2023-01-11T10:39:46.421Z,8.28
2023-01-11T10:42:21.561Z,8.27
2023-01-11T10:44:57.899Z,8.34
2023-01-11T10:47:32.356Z,8.38
2023-01-11T10:50:05.952Z,8.35
2023-01-11T10:52:41.320Z,8.38
2023-01-11T10:55:13.796Z,8.49
2023-01-11T10:58:02.090Z,8.41
2023-01-11T11:00:37.090Z,8.35
2023-01-11T11:03:21.257Z,8.39
2023-01-11T11:05:54.046Z,8.53
2023-01-11T11:08:28.811Z,8.52
2023-01-11T11:11:02.103Z,8.63
2023-01-11T11:13:44.984Z,8.68
2023-01-11T11:16:25.721Z,8.78
2023-01-11T11:18:58.260Z,8.80
2023-01-11T11:21:29.250Z,8.80
2023-01-11T11:24:01.116Z,8.84
2023-01-11T11:26:37.199Z,8.92
2023-01-11T11:29:07.120Z,8.90
2023-01-11T11:31:37.204Z,8.83
2023-01-11T11:34:08.487Z,8.81
2023-01-11T11:36:43.563Z,8.79
2023-01-11T11:39:18.785Z,8.90
2023-01-11T11:41:49.250Z,8.89
2023-01-11T11:44:20.346Z,8.99
2023-01-11T11:47:06.548Z,8.89
2023-01-11T11:49:36.644Z,9.06
2023-01-11T11:52:06.109Z,8.92
2023-01-11T11:54:36.676Z,8.89
2023-01-11T11:57:15.381Z,8.94
2023-01-11T11:59:47.236Z,8.91
2023-01-11T12:02:25.235Z,9.01
2023-01-11T12:04:55.849Z,8.94
2023-01-11T12:07:26.588Z,8.96
2023-01-11T12:09:59.865Z,8.77
2023-01-11T12:12:29.548Z,8.73
2023-01-11T12:15:18.559Z,8.73
2023-01-11T12:17:46.378Z,8.70
2023-01-11T12:20:42.330Z,8.73
2023-01-11T12:23:14.549Z,8.86
2023-01-11T12:25:52.854Z,8.86
2023-01-11T12:28:32.113Z,8.89
2023-01-11T12:31:08.062Z,8.95
2023-01-11T12:33:45.509Z,8.91
2023-01-11T12:36:23.989Z,8.85
2023-01-11T12:39:05.117Z,8.97
2023-01-11T12:41:50.012Z,9.00
2023-01-11T12:44:31.193Z,9.04
2023-01-11T12:47:16.760Z,9.03
2023-01-11T12:49:51.097Z,9.08
2023-01-11T12:52:42.024Z,9.03
2023-01-11T12:55:29.147Z,9.06
2023-01-11T12:58:02.289Z,9.07
2023-01-11T13:00:52.211Z,8.92
2023-01-11T13:03:41.993Z,8.96
2023-01-11T13:06:15.038Z,9.03
2023-01-11T13:08:56.241Z,8.96
2023-01-11T13:11:38.355Z,8.95
2023-01-11T13:14:23.923Z,8.93
2023-01-11T13:17:04.402Z,8.90
2023-01-11T13:19:42.484Z,8.95
2023-01-11T13:22:18.229Z,8.92
2023-01-11T13:24:50.689Z,8.93
2023-01-11T13:27:22.378Z,8.92
2023-01-11T13:29:52.980Z,8.87
2023-01-11T13:32:23.787Z,8.87
2023-01-11T13:34:55.070Z,8.87
2023-01-11T13:37:30.475Z,8.91
2023-01-11T13:40:07.877Z,8.92
2023-01-11T13:42:39.193Z,9.01
2023-01-11T13:45:16.455Z,8.97
2023-01-11T13:47:48.078Z,9.14
2023-01-11T13:50:21.444Z,9.27
2023-01-11T13:53:03.368Z,9.29
2023-01-11T13:55:38.507Z,9.28
2023-01-11T13:58:14.754Z,9.30
2023-01-11T14:00:46.123Z,9.37
2023-01-11T14:03:26.151Z,9.49
2023-01-11T14:06:05.730Z,9.47
2023-01-11T14:08:52.866Z,9.47
2023-01-11T14:11:31.588Z,9.36
2023-01-11T14:14:37.291Z,9.18
2023-01-11T14:17:28.134Z,9.13
2023-01-11T14:20:04.854Z,9.19
2023-01-11T14:22:39.427Z,9.21
2023-01-11T14:25:14.977Z,9.14
2023-01-11T14:28:04.020Z,9.18
2023-01-11T14:30:47.684Z,9.16
2023-01-11T14:33:46.149Z,9.13
2023-01-11T14:36:43.332Z,9.07
2023-01-11T14:39:47.946Z,9.03
2023-01-11T14:42:54.653Z,9.01
2023-01-11T14:45:48.116Z,9.04
2023-01-11T14:48:25.104Z,8.97
2023-01-11T14:51:15.235Z,8.94
2023-01-11T14:53:45.840Z,8.94
2023-01-11T14:56:36.701Z,8.90
2023-01-11T14:59:05.809Z,8.93
2023-01-11T15:04:26.835Z,8.87
2023-01-11T15:06:55.468Z,8.84
2023-01-11T15:09:46.074Z,8.88
2023-01-11T15:12:15.571Z,8.89
2023-01-11T15:14:48.092Z,8.88
2023-01-11T15:17:36.770Z,8.92
2023-01-11T15:20:11.229Z,8.94
2023-01-11T15:22:39.083Z,8.97
2023-01-11T15:25:19.836Z,8.71
2023-01-11T15:27:47.706Z,8.70
2023-01-11T15:30:36.944Z,8.72
2023-01-11T15:33:29.064Z,8.69
2023-01-11T15:36:06.747Z,8.80
2023-01-11T15:38:38.515Z,8.89
2023-01-11T15:41:29.845Z,8.85
2023-01-11T15:44:14.871Z,8.62
2023-01-11T15:47:21.480Z,8.60
2023-01-11T15:50:19.740Z,8.61
2023-01-11T15:53:18.415Z,8.58
2023-01-11T15:56:11.168Z,8.66
2023-01-11T15:59:13.274Z,8.66
2023-01-11T16:01:55.291Z,8.60
2023-01-11T16:04:29.248Z,8.61
2023-01-11T16:06:59.694Z,8.56
2023-01-11T16:09:48.200Z,8.59
2023-01-11T16:12:33.491Z,8.49
2023-01-11T16:15:22.983Z,8.41
2023-01-11T16:17:51.349Z,8.47
2023-01-11T16:20:26.454Z,8.39
2023-01-11T16:22:56.731Z,8.50
2023-01-11T16:25:30.003Z,8.50
2023-01-11T16:27:59.165Z,8.56
2023-01-11T16:30:28.130Z,8.48
2023-01-11T16:33:20.276Z,8.56
2023-01-11T16:35:49.249Z,8.48
2023-01-11T16:38:20.481Z,8.44
2023-01-11T16:40:53.529Z,8.79
2023-01-11T16:43:25.828Z,8.65
2023-01-11T16:45:55.048Z,8.92
2023-01-11T16:48:23.691Z,8.99
2023-01-11T16:51:00.708Z,9.12
2023-01-11T16:53:30.056Z,9.07
2023-01-11T16:56:05.335Z,9.27
2023-01-11T16:58:34.929Z,9.30
2023-01-11T17:01:04.962Z,9.27
2023-01-11T17:03:34.181Z,9.33
2023-01-11T17:06:15.090Z,9.49
2023-01-11T17:08:43.781Z,9.65
2023-01-11T17:11:22.214Z,9.69
2023-01-11T17:14:17.798Z,9.69
2023-01-11T17:16:47.645Z,9.69
2023-01-11T17:19:17.094Z,9.68
2023-01-11T17:21:49.247Z,9.86
2023-01-11T17:24:18.769Z,9.76
2023-01-11T17:26:50.173Z,9.76
2023-01-11T17:29:24.285Z,9.79
2023-01-11T17:31:51.809Z,9.76
2023-01-11T17:34:20.952Z,9.70
2023-01-11T17:36:48.785Z,9.78
2023-01-11T17:39:23.663Z,9.78
2023-01-11T17:42:10.537Z,9.84
2023-01-11T17:44:55.764Z,9.81
2023-01-11T17:47:23.662Z,9.82
2023-01-11T17:49:52.494Z,9.77
2023-01-11T17:52:23.263Z,9.73
2023-01-11T17:55:01.367Z,9.78
2023-01-11T17:57:30.110Z,9.89
2023-01-11T18:00:17.292Z,9.72
2023-01-11T18:02:44.835Z,9.69
2023-01-11T18:05:16.855Z,9.77
2023-01-11T18:07:47.926Z,9.82
2023-01-11T18:10:19.998Z,9.92
2023-01-11T18:12:49.586Z,9.86
2023-01-11T18:15:25.433Z,9.98
2023-01-11T18:17:56.771Z,9.90
2023-01-11T18:20:36.255Z,9.94
2023-01-11T18:23:15.885Z,9.90
2023-01-11T18:25:45.970Z,9.69
2023-01-11T18:28:38.934Z,9.77
2023-01-11T18:31:06.588Z,9.66
2023-01-11T18:33:34.995Z,9.70
2023-01-11T18:36:04.477Z,9.82
2023-01-11T18:38:33.563Z,9.65
2023-01-11T18:41:24.791Z,9.76
2023-01-11T18:43:54.449Z,9.77
2023-01-11T18:46:21.900Z,9.97
2023-01-11T18:48:49.321Z,9.86
2023-01-11T18:51:20.120Z,9.88
2023-01-11T18:53:47.511Z,9.86
2023-01-11T18:56:16.289Z,9.75
2023-01-11T18:58:43.719Z,9.71
2023-01-11T19:01:12.726Z,9.72
2023-01-11T19:03:43.743Z,9.81
2023-01-11T19:06:13.995Z,9.78
2023-01-11T19:08:41.403Z,9.91
2023-01-11T19:11:08.801Z,9.96
2023-01-11T19:13:36.181Z,9.78
2023-01-11T19:16:03.660Z,9.91
2023-01-11T19:18:35.245Z,9.80
2023-01-11T19:21:03.297Z,9.86
2023-01-11T19:23:30.727Z,9.80
2023-01-11T19:25:58.447Z,9.78
2023-01-11T19:28:25.839Z,9.90
2023-01-11T19:30:53.258Z,9.87
2023-01-11T19:33:20.703Z,9.92
2023-01-11T19:35:49.783Z,9.82
2023-01-11T19:38:19.499Z,9.93
2023-01-11T19:40:50.284Z,9.88
2023-01-11T19:43:18.146Z,9.70
2023-01-11T19:45:45.555Z,9.78
2023-01-11T19:48:13.054Z,9.82
2023-01-11T19:50:40.398Z,9.74
2023-01-11T19:53:09.116Z,9.78
2023-01-11T19:55:36.474Z,9.72
2023-01-11T19:58:04.573Z,9.69
2023-01-11T20:00:32.770Z,9.70
2023-01-11T20:03:05.698Z,9.80
2023-01-11T20:05:33.611Z,9.68
2023-01-11T20:11:42.958Z,9.67
2023-01-11T20:14:10.384Z,9.78
2023-01-11T20:16:37.853Z,9.64
2023-01-11T20:19:05.519Z,9.68
2023-01-11T20:21:34.172Z,9.62
2023-01-11T20:24:02.354Z,9.52
2023-01-11T20:26:33.677Z,9.43
2023-01-11T20:29:02.895Z,9.62
2023-01-11T20:31:32.957Z,9.46
2023-01-11T20:36:53.299Z,9.40
2023-01-11T20:39:20.714Z,9.45
2023-01-11T20:41:48.611Z,9.61
2023-01-11T20:44:19.633Z,9.39
2023-01-11T20:46:48.465Z,9.45
2023-01-11T20:49:16.573Z,9.35
2023-01-11T20:51:44.251Z,9.38
2023-01-11T20:54:12.208Z,9.36
2023-01-11T20:56:40.709Z,9.33
2023-01-11T21:01:38.673Z,9.13
2023-01-11T21:04:08.055Z,9.31
2023-01-11T21:06:37.258Z,9.28
2023-01-11T21:09:06.076Z,9.07
2023-01-11T21:11:33.946Z,9.08
2023-01-11T21:14:04.072Z,9.14
2023-01-11T21:16:32.447Z,9.12
2023-01-11T21:19:03.172Z,9.08
2023-01-11T21:21:32.469Z,9.17
2023-01-11T21:24:02.539Z,8.97
2023-01-11T21:26:31.545Z,8.94
2023-01-11T21:29:00.586Z,8.96
2023-01-11T21:31:29.168Z,8.89
2023-01-11T21:33:56.910Z,8.95
2023-01-11T21:36:27.639Z,8.95
2023-01-11T21:38:56.471Z,8.90
2023-01-11T21:41:39.781Z,9.02
2023-01-11T21:44:07.291Z,9.04
2023-01-11T21:46:34.930Z,8.96
2023-01-11T21:49:02.404Z,8.96
2023-01-11T21:51:31.168Z,9.02
2023-01-11T21:53:59.703Z,8.99
2023-01-11T21:56:27.349Z,9.13
2023-01-11T21:58:54.718Z,8.94
2023-01-11T22:01:22.264Z,8.75
2023-01-11T22:03:50.203Z,8.85
2023-01-11T22:06:18.044Z,8.86
2023-01-11T22:08:46.855Z,8.82
2023-01-11T22:11:16.532Z,8.77
2023-01-11T22:13:44.230Z,8.72
2023-01-11T22:16:14.564Z,8.76
2023-01-11T22:18:42.987Z,8.64
2023-01-11T22:21:12.267Z,8.70
2023-01-11T22:23:40.374Z,8.72
2023-01-11T22:26:09.933Z,8.52
2023-01-11T22:28:58.043Z,8.59
2023-01-11T22:31:27.310Z,8.55
2023-01-11T22:33:55.336Z,8.43
2023-01-11T22:36:23.473Z,8.50
2023-01-11T22:38:51.268Z,8.50
2023-01-11T22:41:20.680Z,8.41
2023-01-11T22:43:49.491Z,8.24
2023-01-11T22:46:19.190Z,8.08
2023-01-11T22:48:48.479Z,8.38
2023-01-11T22:51:17.681Z,8.21
2023-01-11T22:53:46.653Z,8.23
2023-01-11T22:56:18.164Z,8.16
2023-01-11T22:58:46.973Z,8.06
2023-01-11T23:01:15.968Z,8.10
2023-01-11T23:03:45.165Z,8.14
2023-01-11T23:06:13.463Z,8.00
2023-01-11T23:08:42.589Z,8.13
2023-01-11T23:11:11.603Z,7.99
2023-01-11T23:13:52.826Z,7.80
2023-01-11T23:16:21.971Z,7.89
2023-01-11T23:18:49.426Z,7.77
2023-01-11T23:21:17.791Z,7.72
2023-01-11T23:23:45.300Z,7.61
2023-01-11T23:26:13.315Z,7.54
2023-01-11T23:28:40.776Z,7.53
2023-01-11T23:31:14.696Z,7.31
2023-01-11T23:33:43.429Z,7.42
2023-01-11T23:36:10.877Z,7.25
2023-01-11T23:38:38.516Z,7.35
2023-01-11T23:41:25.015Z,7.36
2023-01-11T23:43:52.587Z,7.19
2023-01-11T23:46:37.571Z,7.11
2023-01-11T23:49:07.731Z,7.18
2023-01-11T23:51:35.797Z,7.08
2023-01-11T23:54:03.527Z,7.20
2023-01-11T23:56:31.959Z,7.01
2023-01-11T23:58:59.464Z,7.07
